Time;durP1;ratioP1;P1;durP2;ratioP2;P2;SDS_P1;SDS_P2;PMS_P1;PMS_P2;Temp;Humidity;BMP_temperature;BMP_pressure;BME280_temperature;BME280_humidity;BME280_pressure;Samples;Min_cycle;Max_cycle;Signal;HPM_P1;HPM_P2
2022/03/07 00:01:57;;;;;;;3.05;2.85;;;;;;;0.73;52.39;99911.31;8378022;28;20088;-80
2022/03/07 00:05:59;;;;;;;;;;;;;;;0.73;52.66;99903.63;8368815;28;20056;-81
2022/03/07 00:10:01;;;;;;;4.47;3.43;;;;;;;0.71;52.78;99906.91;8365841;28;19921;-80
2022/03/07 00:14:02;;;;;;;5.90;2.93;;;;;;;0.71;53.23;99909.47;8385051;28;20065;-80
2022/03/07 00:18:06;;;;;;;5.50;3.33;;;;;;;0.67;53.21;99913.56;8380943;28;20163;-83
2022/03/07 00:22:07;;;;;;;3.80;3.43;;;;;;;0.67;53.15;99917.81;8361932;28;20045;-80
2022/03/07 00:26:09;;;;;;;8.00;3.87;;;;;;;0.63;53.34;99914.25;8366949;28;20049;-80
2022/03/07 00:30:11;;;;;;;4.53;3.23;;;;;;;0.55;53.79;99918.16;8378477;28;20049;-81
2022/03/07 00:34:14;;;;;;;8.10;3.65;;;;;;;0.55;54.48;99921.59;8682739;22;20692;-80
2022/03/07 00:38:16;;;;;;;4.93;3.65;;;;;;;0.51;54.65;99924.81;8347690;28;20136;-80
2022/03/07 00:42:17;;;;;;;6.03;3.97;;;;;;;0.50;55.16;99927.28;8344867;28;20077;-80
2022/03/07 00:46:19;;;;;;;5.67;4.27;;;;;;;0.48;55.26;99918.69;8356609;28;20066;-80
2022/03/07 00:50:21;;;;;;;6.33;4.27;;;;;;;0.46;55.18;99922.84;8345648;28;20045;-83
2022/03/07 00:54:22;;;;;;;6.47;4.53;;;;;;;0.42;55.73;99921.84;8348851;28;20679;-80
2022/03/07 00:58:24;;;;;;;5.50;3.93;;;;;;;0.40;55.87;99925.16;8354811;28;20083;-82
2022/03/07 01:02:26;;;;;;;5.17;4.27;;;;;;;0.38;55.50;99921.66;8371276;28;20072;-82
2022/03/07 01:06:27;;;;;;;4.53;3.83;;;;;;;0.36;55.98;99923.25;8347553;28;20624;-82
2022/03/07 01:10:29;;;;;;;8.10;4.23;;;;;;;0.34;55.93;99919.75;8343452;28;20044;-82
2022/03/07 01:14:31;;;;;;;6.60;4.40;;;;;;;0.30;55.92;99916.19;8364594;28;20053;-82
2022/03/07 01:18:33;;;;;;;6.93;3.95;;;;;;;0.29;56.34;99925.53;8350355;28;20091;-82
2022/03/07 01:22:35;;;;;;;6.10;3.50;;;;;;;0.28;56.42;99931.44;8354821;28;20457;-82
2022/03/07 01:26:37;;;;;;;6.13;3.65;;;;;;;0.22;56.82;99927.75;8346319;28;20131;-82
2022/03/07 01:30:38;;;;;;;5.63;3.83;;;;;;;0.19;56.66;99928.50;8352483;28;20060;-82
2022/03/07 01:34:40;;;;;;;4.57;3.37;;;;;;;0.16;57.03;99914.69;8343727;28;20076;-81
2022/03/07 01:38:42;;;;;;;4.75;3.45;;;;;;;0.09;56.74;99922.91;8347636;28;20053;-82
2022/03/07 01:42:44;;;;;;;4.20;3.37;;;;;;;0.05;57.25;99933.78;8351917;28;20155;-81
2022/03/07 01:46:47;;;;;;;4.07;3.22;;;;;;;-0.03;57.19;99925.75;8352048;28;20086;-82
2022/03/07 01:50:48;;;;;;;3.80;2.78;;;;;;;-0.06;57.89;99920.50;8340376;28;20168;-81
2022/03/07 01:54:50;;;;;;;4.20;3.17;;;;;;;-0.13;58.14;99919.38;8355569;28;20052;-81
2022/03/07 01:58:52;;;;;;;3.57;2.37;;;;;;;-0.13;58.06;99906.59;8348911;28;20125;-81
2022/03/07 02:02:54;;;;;;;3.17;2.90;;;;;;;-0.15;58.62;99910.75;8336720;28;20067;-81
2022/03/07 02:06:56;;;;;;;;;;;;;;;-0.16;58.66;99909.03;8343508;28;20072;-81
2022/03/07 02:10:57;;;;;;;4.20;2.97;;;;;;;-0.24;58.22;99912.00;8356289;28;19976;-81
2022/03/07 02:14:59;;;;;;;5.30;3.40;;;;;;;-0.27;58.43;99906.75;8336619;28;20048;-81
2022/03/07 02:19:00;;;;;;;5.33;3.50;;;;;;;-0.31;58.90;99903.19;8345038;28;20143;-81
2022/03/07 02:23:02;;;;;;;5.50;3.07;;;;;;;-0.29;58.95;99899.03;8348243;28;20124;-80
2022/03/07 02:27:06;;;;;;;7.07;3.47;;;;;;;-0.34;59.28;99906.47;8345838;28;20411;-81
2022/03/07 02:31:08;;;;;;;5.60;3.13;;;;;;;-0.40;58.78;99903.63;8344038;28;20145;-81
2022/03/07 02:35:12;;;;;;;;;;;;;;;-0.44;59.39;99903.41;8345348;28;20372;-81
2022/03/07 02:39:15;;;;;;;3.90;2.90;;;;;;;-0.43;59.29;99898.38;8348592;28;19920;-81
2022/03/07 02:43:16;;;;;;;3.75;3.13;;;;;;;-0.53;59.22;99891.13;8364715;28;20056;-81
2022/03/07 02:47:18;;;;;;;3.93;2.70;;;;;;;-0.58;59.44;99889.13;8377526;28;20135;-81
2022/03/07 02:51:19;;;;;;;5.93;2.73;;;;;;;-0.61;59.76;99897.50;8347587;28;20416;-80
2022/03/07 02:55:21;;;;;;;4.17;2.83;;;;;;;-0.64;59.65;99890.59;8362379;28;20421;-80
2022/03/07 02:59:22;;;;;;;4.93;3.00;;;;;;;-0.66;59.84;99896.44;8347896;28;20439;-80
2022/03/07 03:03:25;;;;;;;4.20;2.33;;;;;;;-0.66;60.48;99894.75;8349136;28;20080;-80
2022/03/07 03:07:26;;;;;;;3.60;2.77;;;;;;;-0.71;59.94;99888.56;8367865;28;20048;-80
2022/03/07 03:11:28;;;;;;;5.03;2.73;;;;;;;-0.75;60.50;99889.19;8345658;28;20047;-80
2022/03/07 03:15:30;;;;;;;2.65;2.45;;;;;;;-0.80;60.56;99899.97;8359905;28;20053;-80
2022/03/07 03:19:31;;;;;;;3.77;2.33;;;;;;;-0.82;60.76;99894.81;8346930;28;20060;-80
2022/03/07 03:23:33;;;;;;;2.77;2.47;;;;;;;-0.84;60.49;99901.50;8350850;28;20513;-80
2022/03/07 03:27:34;;;;;;;3.20;2.13;;;;;;;-0.88;60.65;99903.84;8366127;28;20538;-79
2022/03/07 03:31:36;;;;;;;2.60;2.40;;;;;;;-0.93;61.12;99901.03;8353241;28;20147;-80
2022/03/07 03:35:38;;;;;;;3.47;2.93;;;;;;;-0.96;61.12;99899.22;8371757;28;20068;-79
2022/03/07 03:39:40;;;;;;;3.95;2.42;;;;;;;-0.98;60.81;99898.28;8352970;28;20564;-79
2022/03/07 03:43:41;;;;;;;3.60;2.53;;;;;;;-0.99;61.42;99906.72;8345131;28;20049;-79
2022/03/07 03:47:43;;;;;;;3.00;2.30;;;;;;;-0.99;61.18;99916.03;8368511;28;20095;-79
2022/03/07 03:51:45;;;;;;;2.50;2.25;;;;;;;-1.03;60.89;99920.13;8356871;28;20326;-79
2022/03/07 03:55:47;;;;;;;3.70;1.60;;;;;;;-1.09;61.33;99909.59;8353578;28;20406;-79
2022/03/07 03:59:48;;;;;;;4.03;2.30;;;;;;;-1.12;61.36;99913.66;8375938;28;20044;-79
2022/03/07 04:03:51;;;;;;;2.13;2.00;;;;;;;-1.15;61.58;99926.25;8342212;28;20080;-79
2022/03/07 04:07:53;;;;;;;2.20;1.92;;;;;;;-1.18;61.61;99916.78;8363500;28;20055;-79
2022/03/07 04:11:57;;;;;;;2.67;1.83;;;;;;;-1.21;61.30;99919.19;8349893;28;20053;-79
2022/03/07 04:15:59;;;;;;;2.97;1.87;;;;;;;-1.25;61.82;99915.63;8348908;28;20060;-79
2022/03/07 04:20:00;;;;;;;1.77;1.67;;;;;;;-1.26;61.59;99918.06;8373710;28;20045;-79
2022/03/07 04:24:02;;;;;;;1.90;1.80;;;;;;;-1.28;62.11;99929.84;8361750;28;20132;-79
2022/03/07 04:28:05;;;;;;;2.10;1.60;;;;;;;-1.28;61.64;99929.84;8355483;28;20052;-79
2022/03/07 04:32:06;;;;;;;2.37;1.87;;;;;;;-1.30;61.58;99934.88;8364611;28;20098;-79
2022/03/07 04:36:10;;;;;;;1.70;1.60;;;;;;;-1.34;61.82;99922.78;8363577;28;20136;-78
2022/03/07 04:40:14;;;;;;;2.22;1.95;;;;;;;-1.35;61.75;99930.34;8343699;28;20151;-79
2022/03/07 04:44:16;;;;;;;2.10;2.00;;;;;;;-1.36;62.09;99936.25;8359248;28;20135;-79
2022/03/07 04:48:21;;;;;;;2.67;1.92;;;;;;;-1.38;61.96;99941.25;8335174;28;20100;-79
2022/03/07 04:52:22;;;;;;;2.73;1.97;;;;;;;-1.40;62.40;99937.75;8336373;28;20124;-79
2022/03/07 04:56:24;;;;;;;2.13;1.90;;;;;;;-1.42;61.92;99941.91;8339049;28;20076;-79
2022/03/07 05:00:25;;;;;;;3.03;1.90;;;;;;;-1.44;62.56;99938.38;8337300;28;20047;-79
2022/03/07 05:04:28;;;;;;;3.30;1.92;;;;;;;-1.44;61.85;99942.59;8336197;28;20056;-79
2022/03/07 05:08:31;;;;;;;2.83;1.85;;;;;;;-1.44;61.59;99940.03;8342592;28;20076;-79
2022/03/07 05:12:32;;;;;;;2.13;1.57;;;;;;;-1.44;61.99;99951.09;8339159;28;20076;-79
2022/03/07 05:16:34;;;;;;;2.93;1.90;;;;;;;-1.45;61.28;99949.34;8354256;28;20457;-79
2022/03/07 05:20:35;;;;;;;2.67;1.93;;;;;;;-1.47;61.11;99955.16;8360459;28;20055;-79
2022/03/07 05:24:56;;;;;;;1.57;1.47;;;;;;;-1.50;61.29;99955.88;8345025;28;20437;-78
2022/03/07 05:28:57;;;;;;;2.23;1.50;;;;;;;-1.48;61.70;99949.19;8344464;28;20057;-78
2022/03/07 05:32:59;;;;;;;2.63;1.60;;;;;;;-1.50;60.35;99955.88;8347355;28;20132;-78
2022/03/07 05:37:01;;;;;;;4.97;1.38;;;;;;;-1.54;61.43;99952.31;8339967;28;20084;-78
2022/03/07 05:41:02;;;;;;;1.70;1.30;;;;;;;-1.57;60.91;99959.78;8343556;28;20793;-78
2022/03/07 05:45:07;;;;;;;3.60;1.92;;;;;;;-1.60;60.82;99956.22;8336237;28;20128;-78
2022/03/07 05:49:09;;;;;;;3.93;1.60;;;;;;;-1.65;61.34;99963.59;8339739;28;20088;-78
2022/03/07 05:53:11;;;;;;;1.90;1.30;;;;;;;-1.65;61.21;99962.72;8362915;28;20053;-78
2022/03/07 05:57:12;;;;;;;1.43;1.33;;;;;;;-1.67;60.60;99960.09;8365103;28;20084;-78
2022/03/07 06:01:15;;;;;;;4.53;1.60;;;;;;;-1.67;60.58;99964.31;8332711;28;20068;-78
2022/03/07 06:05:16;;;;;;;;;;;;;;;-1.69;60.47;99964.22;8343623;28;20060;-78
2022/03/07 06:09:18;;;;;;;2.47;1.60;;;;;;;-1.70;60.70;99971.78;8351528;28;19968;-77
2022/03/07 06:13:20;;;;;;;4.10;1.92;;;;;;;-1.71;61.06;99976.00;8363245;28;20803;-78
2022/03/07 06:17:22;;;;;;;1.13;1.00;;;;;;;-1.69;61.19;99982.06;8356683;28;20095;-77
2022/03/07 06:21:24;;;;;;;2.53;1.27;;;;;;;-1.66;60.79;99987.31;8341732;28;20049;-77
2022/03/07 06:25:25;;;;;;;1.90;1.27;;;;;;;-1.59;61.21;99980.88;8345260;28;20057;-77
2022/03/07 06:29:28;;;;;;;4.60;1.40;;;;;;;-1.50;60.48;99981.34;8340923;28;20457;-77
2022/03/07 06:33:31;;;;;;;3.67;1.40;;;;;;;-1.46;60.10;99990.91;8344051;28;20353;-77
2022/03/07 06:37:32;;;;;;;2.53;1.45;;;;;;;-1.43;60.48;100000.41;8351564;28;20053;-77
2022/03/07 06:41:34;;;;;;;1.48;1.27;;;;;;;-1.43;59.96;99996.19;8339633;28;20048;-77
2022/03/07 06:45:36;;;;;;;1.58;1.48;;;;;;;-1.38;59.92;99999.84;8361406;28;20151;-76
2022/03/07 06:49:40;;;;;;;3.28;1.35;;;;;;;-1.35;59.46;100000.00;8354461;28;20091;-77
2022/03/07 06:53:41;;;;;;;1.43;1.30;;;;;;;-1.28;59.79;100006.28;8357059;28;20438;-77
2022/03/07 06:57:43;;;;;;;2.70;1.30;;;;;;;-1.16;59.63;100009.47;8334846;28;20132;-77
2022/03/07 07:01:44;;;;;;;1.70;1.37;;;;;;;-1.03;58.93;100003.34;8352259;28;20065;-76
2022/03/07 07:05:46;;;;;;;2.57;2.00;;;;;;;-0.86;58.60;100011.84;8359260;28;20052;-77
2022/03/07 07:09:48;;;;;;;3.33;1.40;;;;;;;-0.74;57.74;100002.25;8371564;28;20636;-78
2022/03/07 07:14:01;;;;;;;4.37;1.60;;;;;;;-0.55;57.71;99993.81;8342391;28;20037;-78
2022/03/07 07:18:18;;;;;;;2.73;1.60;;;;;;;-0.30;56.96;100007.00;8337306;28;20052;-77
2022/03/07 07:22:20;;;;;;;2.45;1.63;;;;;;;0.14;55.90;100011.66;8362287;28;20136;-77
2022/03/07 07:26:21;;;;;;;3.57;1.50;;;;;;;0.63;54.13;100003.69;8334696;28;20140;-77
2022/03/07 07:30:23;;;;;;;2.63;1.83;;;;;;;0.99;52.62;99993.34;8331634;28;20135;-77
2022/03/07 07:34:25;;;;;;;3.00;1.63;;;;;;;1.38;51.23;100001.81;8337929;28;20071;-77
2022/03/07 07:38:26;;;;;;;3.35;1.40;;;;;;;1.69;50.32;100003.97;8352663;28;20096;-77
2022/03/07 07:42:28;;;;;;;2.97;1.53;;;;;;;2.01;49.66;100003.56;8337688;28;20080;-78
2022/03/07 07:46:30;;;;;;;2.57;2.10;;;;;;;2.26;49.02;99999.38;8332287;28;20044;-78
2022/03/07 07:50:32;;;;;;;1.80;1.50;;;;;;;2.42;48.08;99997.47;8343813;28;20497;-79
2022/03/07 07:54:34;;;;;;;2.37;2.00;;;;;;;2.52;46.82;100000.38;8356816;28;20096;-79
2022/03/07 07:58:36;;;;;;;1.52;1.42;;;;;;;2.69;46.54;99996.72;8333586;28;20044;-78
2022/03/07 08:02:37;;;;;;;3.00;1.90;;;;;;;2.83;45.72;100008.38;8366859;28;20432;-79
2022/03/07 08:06:40;;;;;;;1.73;1.63;;;;;;;2.99;45.35;100017.50;8350760;28;20044;-78
2022/03/07 08:10:41;;;;;;;;;;;;;;;3.13;44.57;100015.41;8360800;28;20127;-78
2022/03/07 08:14:44;;;;;;;2.73;1.70;;;;;;;3.30;44.26;100012.63;8359558;28;20003;-76
2022/03/07 08:18:45;;;;;;;2.83;1.70;;;;;;;3.41;43.81;100006.97;8327498;28;20116;-78
2022/03/07 08:22:47;;;;;;;2.70;1.97;;;;;;;3.73;43.47;100008.03;8354740;28;20061;-78
2022/03/07 08:26:49;;;;;;;3.05;1.88;;;;;;;3.92;43.03;100015.50;8332510;28;20096;-79
2022/03/07 08:30:51;;;;;;;4.10;2.05;;;;;;;4.15;42.19;100013.69;8349046;28;20071;-80
2022/03/07 08:34:53;;;;;;;1.40;1.30;;;;;;;4.53;40.73;100002.00;8350411;28;20149;-80
2022/03/07 08:38:54;;;;;;;2.00;1.57;;;;;;;4.60;39.69;100011.63;8343332;28;20099;-80
2022/03/07 08:42:56;;;;;;;1.63;1.40;;;;;;;4.71;38.29;100023.13;8335213;28;20053;-80
2022/03/07 08:46:57;;;;;;;1.43;1.33;;;;;;;4.60;38.25;100019.34;8350555;28;20060;-79
2022/03/07 08:50:59;;;;;;;1.53;1.43;;;;;;;4.61;38.60;100013.38;8342509;28;20091;-79
2022/03/07 08:55:01;;;;;;;2.23;1.50;;;;;;;4.55;38.26;100014.06;8339893;28;20052;-79
2022/03/07 08:59:03;;;;;;;1.63;1.40;;;;;;;4.55;39.14;100019.22;8354638;28;20084;-79
2022/03/07 09:03:04;;;;;;;2.97;1.63;;;;;;;4.50;38.63;100018.22;8328851;28;20575;-79
2022/03/07 09:07:07;;;;;;;1.70;1.53;;;;;;;4.51;38.84;100021.66;8335453;28;20064;-79
2022/03/07 09:11:08;;;;;;;1.83;1.63;;;;;;;4.67;38.69;100034.16;8341492;28;20163;-79
2022/03/07 09:15:10;;;;;;;2.87;1.40;;;;;;;4.78;38.52;100032.75;8362057;28;20428;-79
2022/03/07 09:19:12;;;;;;;2.90;1.73;;;;;;;4.69;38.24;100039.34;8354878;28;20295;-80
2022/03/07 09:23:14;;;;;;;2.15;1.60;;;;;;;4.42;38.16;100034.22;8339241;28;20122;-80
2022/03/07 09:27:16;;;;;;;1.67;1.57;;;;;;;4.37;39.02;100039.22;8334124;28;20076;-79
2022/03/07 09:31:22;;;;;;;1.87;1.77;;;;;;;4.44;38.41;100030.88;8349292;28;20140;-79
2022/03/07 09:35:24;;;;;;;2.00;1.85;;;;;;;4.50;39.27;100031.06;8331875;28;20745;-79
2022/03/07 09:39:26;;;;;;;2.42;2.22;;;;;;;4.83;39.07;100028.59;8349652;28;20482;-78
2022/03/07 09:43:28;;;;;;;2.10;2.00;;;;;;;5.06;37.90;100021.53;8351545;28;20077;-79
2022/03/07 09:47:32;;;;;;;2.20;1.70;;;;;;;5.15;37.69;100028.63;8334668;28;20068;-80
2022/03/07 09:51:34;;;;;;;2.30;1.77;;;;;;;5.25;37.45;100034.91;8329193;28;20064;-79
2022/03/07 09:55:36;;;;;;;3.53;2.25;;;;;;;5.53;37.03;100021.91;8352698;28;20171;-79
2022/03/07 09:59:38;;;;;;;2.65;1.95;;;;;;;5.65;36.87;100019.66;8352661;28;20068;-80
2022/03/07 10:03:40;;;;;;;2.20;2.00;;;;;;;5.53;36.79;100023.63;8337963;28;20496;-79
2022/03/07 10:07:44;;;;;;;3.28;2.00;;;;;;;5.42;36.53;100031.97;8357971;28;20059;-80
2022/03/07 10:11:54;;;;;;;3.10;2.10;;;;;;;5.41;36.34;100037.94;8341494;28;20083;-79
2022/03/07 10:16:06;;;;;;;2.53;1.63;;;;;;;5.46;36.30;100026.06;8353024;28;20132;-80
2022/03/07 10:20:09;;;;;;;2.15;1.95;;;;;;;5.55;35.67;100033.13;8354505;28;20064;-80
2022/03/07 10:24:10;;;;;;;2.17;2.08;;;;;;;5.35;36.20;100031.75;8332715;28;20060;-80
2022/03/07 10:28:13;;;;;;;3.10;2.55;;;;;;;5.43;36.23;100028.56;8337087;28;20080;-79
2022/03/07 10:32:18;;;;;;;2.17;1.98;;;;;;;5.42;35.75;100033.66;8328047;28;20124;-80
2022/03/07 10:36:33;;;;;;;2.87;2.43;;;;;;;5.44;37.10;100021.69;8344328;28;20736;-80
2022/03/07 10:40:38;;;;;;;4.37;2.87;;;;;;;5.58;36.40;100015.22;8333259;28;20112;-80
2022/03/07 10:44:40;;;;;;;3.23;2.57;;;;;;;5.75;35.79;100029.38;8326446;28;20048;-80
2022/03/07 10:48:43;;;;;;;2.30;2.00;;;;;;;5.82;34.54;100008.91;8352078;28;20088;-80
2022/03/07 10:52:44;;;;;;;3.58;2.28;;;;;;;6.15;34.52;100016.63;8362177;28;20099;-80
2022/03/07 10:56:54;;;;;;;2.20;2.03;;;;;;;6.14;34.76;100018.31;8349060;28;20099;-79
2022/03/07 11:01:01;;;;;;;3.70;2.13;;;;;;;6.24;35.00;100006.50;8361066;28;20095;-80
2022/03/07 11:05:03;;;;;;;3.30;2.50;;;;;;;6.32;35.20;100002.41;8336981;28;20057;-80
2022/03/07 11:09:04;;;;;;;2.73;2.43;;;;;;;6.49;35.48;100001.06;8357058;28;20615;-78
2022/03/07 11:13:10;;;;;;;5.65;4.13;;;;;;;6.69;34.91;99992.88;8335554;28;20057;-79
2022/03/07 11:17:17;;;;;;;3.70;2.93;;;;;;;6.86;34.28;99994.97;8353553;28;20061;-79
2022/03/07 11:21:20;;;;;;;2.35;2.15;;;;;;;6.80;33.62;99984.50;8336802;28;20458;-80
2022/03/07 11:25:22;;;;;;;9.18;3.83;;;;;;;6.72;33.59;99985.19;8356397;28;20056;-79
2022/03/07 11:29:39;;;;;;;3.50;3.03;;;;;;;6.75;32.81;99982.66;8342638;28;20081;-79
2022/03/07 11:33:49;;;;;;;2.67;2.00;;;;;;;6.78;33.75;99968.09;8344815;28;20045;-78
2022/03/07 11:37:50;;;;;;;3.38;3.03;;;;;;;6.75;33.34;99975.78;8324870;28;20080;-79
2022/03/07 11:41:52;;;;;;;2.67;2.45;;;;;;;6.77;33.60;99961.22;8354668;28;20144;-79
2022/03/07 11:45:55;;;;;;;2.78;2.58;;;;;;;6.94;34.11;99949.50;8351314;28;20057;-79
2022/03/07 11:50:00;;;;;;;3.00;2.47;;;;;;;7.06;33.24;99951.47;8349649;28;20049;-79
2022/03/07 11:54:03;;;;;;;2.70;2.47;;;;;;;7.08;32.92;99949.78;8356304;28;20049;-78
2022/03/07 11:58:05;;;;;;;3.22;2.28;;;;;;;7.07;32.78;99942.88;8339675;28;20135;-80
2022/03/07 12:02:06;;;;;;;2.40;2.15;;;;;;;6.95;33.03;99930.59;8352437;28;20053;-80
2022/03/07 12:06:11;;;;;;;2.63;2.40;;;;;;;7.08;33.82;99931.69;8335525;28;20384;-79
2022/03/07 12:10:12;;;;;;;2.13;1.80;;;;;;;7.30;32.93;99921.75;8337818;28;20448;-80
2022/03/07 12:14:25;;;;;;;3.30;2.00;;;;;;;7.33;32.91;99927.81;8354271;28;20080;-79
2022/03/07 12:18:28;;;;;;;3.13;2.30;;;;;;;7.37;32.17;99926.19;8352428;28;20061;-79
2022/03/07 12:22:31;;;;;;;2.95;1.98;;;;;;;7.38;32.38;99922.75;8338439;28;20096;-79
2022/03/07 12:26:49;;;;;;;2.83;2.40;;;;;;;7.33;31.91;99912.31;8334479;28;20093;-79
2022/03/07 12:30:54;;;;;;;2.87;2.67;;;;;;;7.31;32.56;99898.50;8355688;28;20095;-80
2022/03/07 12:34:56;;;;;;;2.33;2.13;;;;;;;7.43;31.81;99897.84;8358358;28;20468;-80
2022/03/07 12:39:00;;;;;;;3.77;2.93;;;;;;;7.45;32.45;99902.19;8334898;28;20132;-80
2022/03/07 12:43:02;;;;;;;2.45;2.25;;;;;;;7.45;32.76;99888.41;8333622;28;20099;-79
2022/03/07 12:47:04;;;;;;;3.15;2.95;;;;;;;7.56;32.12;99892.06;8326952;28;20135;-79
2022/03/07 12:51:08;;;;;;;3.33;2.97;;;;;;;7.50;31.90;99894.53;8350192;28;20498;-79
2022/03/07 12:55:12;;;;;;;4.20;3.22;;;;;;;7.51;32.32;99891.94;8344975;28;20483;-80
2022/03/07 12:59:24;;;;;;;2.33;2.13;;;;;;;7.49;31.96;99885.03;8332036;28;20054;-80
2022/03/07 13:03:35;;;;;;;2.30;2.13;;;;;;;7.51;31.91;99879.03;8330131;28;20052;-80
2022/03/07 13:07:36;;;;;;;2.65;2.15;;;;;;;7.58;31.64;99875.72;8330745;28;20072;-80
2022/03/07 13:11:43;;;;;;;2.92;2.35;;;;;;;7.64;31.64;99877.53;8340700;28;20054;-77
2022/03/07 13:15:44;;;;;;;2.55;2.35;;;;;;;7.63;31.81;99854.25;8357166;28;20067;-80
2022/03/07 13:19:49;;;;;;;2.75;2.53;;;;;;;7.67;31.92;99858.59;8333321;28;20098;-80
2022/03/07 13:23:51;;;;;;;5.88;2.55;;;;;;;7.62;31.39;99852.50;8340256;28;20068;-80
2022/03/07 13:27:53;;;;;;;4.65;2.40;;;;;;;7.65;32.03;99843.06;8350640;28;20057;-80
2022/03/07 13:31:58;;;;;;;2.20;2.00;;;;;;;7.66;31.76;99842.22;8338045;28;20060;-81
2022/03/07 13:36:11;;;;;;;3.03;2.45;;;;;;;7.71;31.41;99844.88;8357365;28;20071;-80
2022/03/07 13:40:24;;;;;;;3.03;2.70;;;;;;;7.68;31.52;99839.66;8358292;28;20045;-80
2022/03/07 13:44:27;;;;;;;2.47;2.05;;;;;;;7.68;31.78;99831.91;8332522;28;20085;-80
2022/03/07 13:48:29;;;;;;;2.90;2.70;;;;;;;7.76;31.95;99823.44;8338933;28;20053;-80
2022/03/07 13:52:37;;;;;;;4.43;2.58;;;;;;;7.79;31.75;99825.19;8355976;28;20049;-80
2022/03/07 13:56:39;;;;;;;3.13;2.83;;;;;;;7.83;31.69;99819.19;8343986;28;20067;-80
2022/03/07 14:00:41;;;;;;;3.28;2.60;;;;;;;7.93;32.08;99812.44;8335920;28;20088;-80
2022/03/07 14:04:59;;;;;;;4.00;2.73;;;;;;;7.90;31.45;99813.28;8341190;28;20425;-80
2022/03/07 14:09:01;;;;;;;4.63;2.83;;;;;;;7.84;30.94;99811.47;8349904;28;20465;-80
2022/03/07 14:13:04;;;;;;;4.40;3.60;;;;;;;7.86;31.08;99816.66;8336389;28;20059;-80
2022/03/07 14:17:14;;;;;;;2.38;2.17;;;;;;;7.69;30.71;99816.41;8358033;28;20103;-80
2022/03/07 14:21:16;;;;;;;3.83;2.45;;;;;;;7.69;31.35;99813.84;8359661;28;20056;-80
2022/03/07 14:25:36;;;;;;;2.92;2.72;;;;;;;7.68;30.91;99811.22;8362708;28;20041;-80
2022/03/07 14:29:38;;;;;;;2.70;2.50;;;;;;;7.69;30.95;99806.09;8334302;28;20080;-80
2022/03/07 14:33:40;;;;;;;;;;;;;;;7.70;30.22;99815.56;8333328;28;20049;-80
2022/03/07 14:37:42;;;;;;;2.42;2.22;;;;;;;7.65;30.33;99806.03;8357401;28;20007;-79
2022/03/07 14:41:44;;;;;;;3.67;2.65;;;;;;;7.59;30.68;99809.41;8359620;28;20063;-80
2022/03/07 14:46:06;;;;;;;3.33;3.03;;;;;;;7.44;30.86;99793.66;8357327;28;20086;-78
2022/03/07 14:50:08;;;;;;;2.50;2.28;;;;;;;7.41;31.11;99794.50;8346510;28;20459;-79
2022/03/07 14:54:10;;;;;;;5.10;2.78;;;;;;;7.39;30.76;99800.50;8346418;28;20063;-78
2022/03/07 14:58:11;;;;;;;5.13;2.88;;;;;;;7.26;30.91;99802.88;8345843;28;20064;-81
2022/03/07 15:02:16;;;;;;;2.38;2.17;;;;;;;7.18;30.56;99785.50;8360435;28;20061;-79
2022/03/07 15:06:18;;;;;;;3.07;2.33;;;;;;;7.18;30.83;99772.59;8331753;28;20702;-80
2022/03/07 15:10:19;;;;;;;2.23;2.10;;;;;;;7.10;30.16;99782.81;8341023;28;20076;-80
2022/03/07 15:14:23;;;;;;;4.78;2.92;;;;;;;7.10;30.74;99779.38;8356195;28;20045;-80
2022/03/07 15:18:25;;;;;;;3.80;3.20;;;;;;;7.06;31.05;99777.59;8337842;28;20099;-80
2022/03/07 15:22:29;;;;;;;3.00;2.63;;;;;;;7.14;30.92;99770.81;8342325;28;20081;-80
2022/03/07 15:26:31;;;;;;;2.60;2.40;;;;;;;7.17;31.09;99779.47;8355719;28;20462;-80
2022/03/07 15:30:33;;;;;;;5.13;3.10;;;;;;;7.16;30.91;99769.13;8348434;28;20173;-80
2022/03/07 15:34:34;;;;;;;3.33;2.40;;;;;;;7.13;30.82;99777.72;8339829;28;20114;-79
2022/03/07 15:38:38;;;;;;;2.90;2.60;;;;;;;7.32;31.17;99783.16;8360165;28;20049;-80
2022/03/07 15:42:40;;;;;;;3.63;2.67;;;;;;;7.42;30.62;99779.88;8355544;28;20136;-80
2022/03/07 15:46:41;;;;;;;3.37;3.03;;;;;;;7.51;30.55;99780.84;8342791;28;20143;-80
2022/03/07 15:50:43;;;;;;;3.67;3.10;;;;;;;7.78;30.41;99777.78;8359508;28;20447;-80
2022/03/07 15:54:45;;;;;;;6.10;3.80;;;;;;;8.91;28.65;99776.44;8339576;28;20041;-81
2022/03/07 15:58:48;;;;;;;3.80;3.20;;;;;;;10.10;27.17;99778.91;8347119;28;20455;-78
2022/03/07 16:02:49;;;;;;;4.28;3.88;;;;;;;10.94;26.22;99779.94;8358834;28;20049;-80
2022/03/07 16:06:56;;;;;;;5.97;4.00;;;;;;;12.39;24.21;99783.09;8343638;28;20087;-79
2022/03/07 16:10:57;;;;;;;5.20;4.72;;;;;;;13.01;23.68;99788.75;8364899;28;20048;-80
2022/03/07 16:15:00;;;;;;;4.82;4.43;;;;;;;12.79;23.70;99792.41;8342724;28;20430;-79
2022/03/07 16:19:04;;;;;;;4.47;4.18;;;;;;;14.75;21.40;99799.91;8358277;28;21476;-79
2022/03/07 16:23:08;;;;;;;6.00;5.38;;;;;;;14.33;20.77;99796.94;8363504;28;20051;-79
2022/03/07 16:27:10;;;;;;;4.78;4.38;;;;;;;12.11;23.28;99804.91;8357760;28;20094;-79
2022/03/07 16:31:11;;;;;;;4.25;3.67;;;;;;;10.54;24.36;99798.06;8336935;28;21089;-80
2022/03/07 16:35:13;;;;;;;3.72;3.53;;;;;;;9.46;25.79;99807.06;8340214;28;20049;-80
2022/03/07 16:39:15;;;;;;;3.60;3.30;;;;;;;8.10;27.88;99810.94;8354215;28;20084;-80
2022/03/07 16:43:16;;;;;;;3.17;2.83;;;;;;;7.16;29.60;99811.31;8360081;28;20343;-80
2022/03/07 16:47:18;;;;;;;3.22;2.90;;;;;;;6.55;30.30;99810.28;8332304;28;20386;-80
2022/03/07 16:51:20;;;;;;;3.90;3.60;;;;;;;6.05;31.46;99805.00;8342185;28;21017;-81
2022/03/07 16:55:21;;;;;;;5.93;5.10;;;;;;;5.70;32.15;99805.94;8338552;28;20060;-80
2022/03/07 16:59:23;;;;;;;12.97;8.27;;;;;;;5.37;33.15;99812.06;8353323;28;20461;-81
2022/03/07 17:03:24;;;;;;;8.37;6.67;;;;;;;5.12;33.35;99813.22;8347782;28;20144;-80
2022/03/07 17:07:26;;;;;;;6.50;4.37;;;;;;;4.90;33.97;99810.09;8334596;28;20055;-80
2022/03/07 17:11:27;;;;;;;6.47;4.80;;;;;;;4.69;34.05;99813.00;8330457;28;20143;-80
2022/03/07 17:15:29;;;;;;;4.33;3.93;;;;;;;4.54;34.93;99818.59;8350289;28;20045;-80
2022/03/07 17:19:31;;;;;;;6.25;3.90;;;;;;;4.44;35.20;99814.03;8352149;28;20049;-81
2022/03/07 17:23:33;;;;;;;4.57;3.50;;;;;;;4.32;35.70;99811.16;8340833;28;20076;-81
2022/03/07 17:27:36;;;;;;;4.10;3.63;;;;;;;4.15;36.22;99814.13;8353862;28;20049;-81
2022/03/07 17:31:37;;;;;;;4.50;3.80;;;;;;;4.04;36.52;99822.34;8352084;28;20053;-81
2022/03/07 17:35:39;;;;;;;3.77;3.47;;;;;;;3.91;37.21;99821.97;8345358;28;20057;-80
2022/03/07 17:39:41;;;;;;;4.03;3.73;;;;;;;3.80;37.55;99825.09;8339859;28;20443;-81
2022/03/07 17:43:43;;;;;;;3.50;3.20;;;;;;;3.66;38.11;99832.38;8335552;28;20072;-81
2022/03/07 17:47:45;;;;;;;4.03;3.72;;;;;;;3.54;38.51;99844.81;8341819;28;20457;-81
2022/03/07 17:51:48;;;;;;;4.03;3.63;;;;;;;3.43;38.56;99848.78;8371410;28;20079;-81
2022/03/07 17:55:52;;;;;;;4.03;3.67;;;;;;;3.33;38.81;99845.91;8364492;28;20420;-81
2022/03/07 17:59:54;;;;;;;3.60;3.30;;;;;;;3.27;39.14;99848.28;8346543;28;20132;-80
2022/03/07 18:03:55;;;;;;;5.47;4.30;;;;;;;3.21;39.09;99847.19;8359635;28;20049;-80
2022/03/07 18:07:59;;;;;;;9.38;4.72;;;;;;;3.13;39.93;99851.22;8362623;28;20128;-80
2022/03/07 18:12:02;;;;;;;6.07;5.37;;;;;;;3.07;39.80;99843.34;8348067;28;20132;-81
2022/03/07 18:16:04;;;;;;;4.97;4.47;;;;;;;2.98;39.92;99846.47;8347828;28;20077;-82
2022/03/07 18:20:07;;;;;;;4.82;4.13;;;;;;;2.90;40.09;99853.03;8347720;28;20067;-81
2022/03/07 18:24:09;;;;;;;;;;;;;;;2.86;40.20;99864.00;8359863;28;20041;-81
2022/03/07 18:28:10;;;;;;;5.37;4.17;;;;;;;2.81;40.91;99868.09;8351033;28;20286;-81
2022/03/07 18:32:12;;;;;;;4.35;3.72;;;;;;;2.72;40.47;99861.84;8345555;28;20068;-82
2022/03/07 18:36:16;;;;;;;8.02;5.05;;;;;;;2.65;41.15;99867.56;8342842;28;20136;-81
2022/03/07 18:40:18;;;;;;;5.37;4.67;;;;;;;2.61;40.96;99868.28;8352541;28;20155;-81
2022/03/07 18:44:20;;;;;;;5.00;4.50;;;;;;;2.56;40.83;99864.69;8341751;28;20549;-81
2022/03/07 18:48:22;;;;;;;5.93;4.50;;;;;;;2.54;41.09;99852.66;8357921;28;20356;-81
2022/03/07 18:52:23;;;;;;;4.20;3.78;;;;;;;2.49;41.17;99859.28;8345182;28;20080;-81
2022/03/07 18:56:25;;;;;;;4.90;3.77;;;;;;;2.48;41.45;99852.41;8360546;28;20087;-81
2022/03/07 19:00:28;;;;;;;4.28;3.78;;;;;;;2.45;41.58;99863.44;8335418;28;20124;-81
2022/03/07 19:04:31;;;;;;;4.30;3.80;;;;;;;2.44;41.29;99869.38;8334891;28;20044;-71
2022/03/07 19:08:32;;;;;;;8.15;3.35;;;;;;;2.38;41.49;99870.06;8343522;28;20084;-79
2022/03/07 19:12:34;;;;;;;4.50;3.87;;;;;;;2.34;41.91;99865.63;8340688;28;20136;-78